sensor_id;sensor_type;location;lat;lon;timestamp;pressure;altitude;pressure_sealevel;temperature;humidity
32320;BME280;19080;51.750;5.888;2023-04-04T00:00:20;102817.81;;;1.93;100.00
32320;BME280;19080;51.750;5.888;2023-04-04T00:02:48;102749.00;;;1.52;100.00
32320;BME280;19080;51.750;5.888;2023-04-04T00:05:14;102777.22;;;1.66;100.00
32320;BME280;19080;51.750;5.888;2023-04-04T00:07:41;102779.31;;;1.70;100.00
32320;BME280;19080;51.750;5.888;2023-04-04T00:10:11;102815.84;;;1.90;100.00
32320;BME280;19080;51.750;5.888;2023-04-04T00:12:37;102781.13;;;1.71;100.00
32320;BME280;19080;51.750;5.888;2023-04-04T00:15:05;102752.91;;;1.57;100.00
32320;BME280;19080;51.750;5.888;2023-04-04T00:17:31;102707.72;;;1.38;100.00
32320;BME280;19080;51.750;5.888;2023-04-04T00:19:58;102765.31;;;1.70;100.00
32320;BME280;19080;51.750;5.888;2023-04-04T00:22:25;102771.91;;;1.76;100.00
32320;BME280;19080;51.750;5.888;2023-04-04T00:24:51;102784.72;;;1.83;100.00
32320;BME280;19080;51.750;5.888;2023-04-04T00:27:18;102785.25;;;1.79;100.00
32320;BME280;19080;51.750;5.888;2023-04-04T00:29:45;102788.00;;;1.81;100.00
32320;BME280;19080;51.750;5.888;2023-04-04T00:32:12;102789.47;;;1.77;100.00
32320;BME280;19080;51.750;5.888;2023-04-04T00:34:38;102778.53;;;1.71;100.00
32320;BME280;19080;51.750;5.888;2023-04-04T00:37:05;102793.88;;;1.88;100.00
32320;BME280;19080;51.750;5.888;2023-04-04T00:39:33;102755.00;;;1.61;100.00
32320;BME280;19080;51.750;5.888;2023-04-04T00:41:59;102674.56;;;1.16;100.00
32320;BME280;19080;51.750;5.888;2023-04-04T00:44:26;102803.06;;;1.83;100.00
32320;BME280;19080;51.750;5.888;2023-04-04T00:46:53;102791.66;;;1.83;100.00
32320;BME280;19080;51.750;5.888;2023-04-04T00:49:20;102748.59;;;1.57;100.00
32320;BME280;19080;51.750;5.888;2023-04-04T00:51:47;102762.56;;;1.68;100.00
32320;BME280;19080;51.750;5.888;2023-04-04T00:54:13;102784.72;;;1.83;100.00
32320;BME280;19080;51.750;5.888;2023-04-04T00:56:40;102753.03;;;1.58;100.00
32320;BME280;19080;51.750;5.888;2023-04-04T00:59:07;102763.91;;;1.63;100.00
32320;BME280;19080;51.750;5.888;2023-04-04T01:01:34;102778.53;;;1.71;100.00
32320;BME280;19080;51.750;5.888;2023-04-04T01:04:03;102694.16;;;1.21;100.00
32320;BME280;19080;51.750;5.888;2023-04-04T01:06:30;102763.69;;;1.50;100.00
32320;BME280;19080;51.750;5.888;2023-04-04T01:08:58;102733.25;;;1.30;100.00
32320;BME280;19080;51.750;5.888;2023-04-04T01:11:25;102766.16;;;1.48;100.00
32320;BME280;19080;51.750;5.888;2023-04-04T01:13:54;102776.88;;;1.51;100.00
32320;BME280;19080;51.750;5.888;2023-04-04T01:16:21;102761.88;;;1.39;100.00
32320;BME280;19080;51.750;5.888;2023-04-04T01:18:51;102786.19;;;1.48;100.00
32320;BME280;19080;51.750;5.888;2023-04-04T01:21:19;102761.63;;;1.36;100.00
32320;BME280;19080;51.750;5.888;2023-04-04T01:24:02;102776.78;;;1.40;100.00
32320;BME280;19080;51.750;5.888;2023-04-04T01:26:37;102776.16;;;1.32;100.00
32320;BME280;19080;51.750;5.888;2023-04-04T01:29:03;102756.44;;;1.15;100.00
32320;BME280;19080;51.750;5.888;2023-04-04T01:31:35;102675.22;;;0.61;100.00
32320;BME280;19080;51.750;5.888;2023-04-04T01:40:11;102765.47;;;1.09;100.00
32320;BME280;19080;51.750;5.888;2023-04-04T01:42:41;102752.28;;;0.97;100.00
32320;BME280;19080;51.750;5.888;2023-04-04T01:45:09;102731.91;;;0.83;100.00
32320;BME280;19080;51.750;5.888;2023-04-04T01:47:40;102769.78;;;1.08;100.00
32320;BME280;19080;51.750;5.888;2023-04-04T01:50:12;102767.69;;;1.04;100.00
32320;BME280;19080;51.750;5.888;2023-04-04T01:52:39;102721.97;;;0.79;100.00
32320;BME280;19080;51.750;5.888;2023-04-04T01:55:06;102745.75;;;0.92;100.00
32320;BME280;19080;51.750;5.888;2023-04-04T01:57:34;102632.66;;;0.32;100.00
32320;BME280;19080;51.750;5.888;2023-04-04T02:00:02;102634.88;;;0.27;100.00
32320;BME280;19080;51.750;5.888;2023-04-04T02:02:29;102725.88;;;0.84;100.00
32320;BME280;19080;51.750;5.888;2023-04-04T02:04:55;102746.00;;;0.95;100.00
32320;BME280;19080;51.750;5.888;2023-04-04T02:07:22;102722.22;;;0.82;100.00
32320;BME280;19080;51.750;5.888;2023-04-04T02:09:50;102742.09;;;0.90;100.00
32320;BME280;19080;51.750;5.888;2023-04-04T02:12:17;102711.00;;;0.73;100.00
32320;BME280;19080;51.750;5.888;2023-04-04T02:14:43;102781.03;;;1.07;100.00
32320;BME280;19080;51.750;5.888;2023-04-04T02:17:10;102754.50;;;0.92;100.00
32320;BME280;19080;51.750;5.888;2023-04-04T02:19:37;102727.19;;;0.79;100.00
32320;BME280;19080;51.750;5.888;2023-04-04T02:22:04;102777.91;;;1.01;100.00
32320;BME280;19080;51.750;5.888;2023-04-04T02:24:31;102789.94;;;0.99;100.00
32320;BME280;19080;51.750;5.888;2023-04-04T02:26:57;102778.16;;;0.94;100.00
32320;BME280;19080;51.750;5.888;2023-04-04T02:29:25;102794.75;;;0.94;100.00
32320;BME280;19080;51.750;5.888;2023-04-04T02:31:52;102761.03;;;0.77;100.00
32320;BME280;19080;51.750;5.888;2023-04-04T02:34:19;102748.38;;;0.72;100.00
32320;BME280;19080;51.750;5.888;2023-04-04T02:36:48;102751.13;;;0.73;100.00
32320;BME280;19080;51.750;5.888;2023-04-04T02:39:15;102667.38;;;0.31;100.00
32320;BME280;19080;51.750;5.888;2023-04-04T02:41:42;102736.88;;;0.70;100.00
32320;BME280;19080;51.750;5.888;2023-04-04T02:44:09;102769.94;;;0.89;100.00
32320;BME280;19080;51.750;5.888;2023-04-04T02:46:37;102747.59;;;0.73;100.00
32320;BME280;19080;51.750;5.888;2023-04-04T02:49:06;102675.22;;;0.31;100.00
32320;BME280;19080;51.750;5.888;2023-04-04T02:51:34;102759.88;;;0.84;100.00
32320;BME280;19080;51.750;5.888;2023-04-04T02:54:00;102736.88;;;0.70;100.00
32320;BME280;19080;51.750;5.888;2023-04-04T02:56:36;102761.44;;;0.82;100.00
32320;BME280;19080;51.750;5.888;2023-04-04T02:59:03;102756.22;;;0.72;100.00
32320;BME280;19080;51.750;5.888;2023-04-04T03:01:30;102762.22;;;0.71;100.00
32320;BME280;19080;51.750;5.888;2023-04-04T03:04:00;102720.28;;;0.49;100.00
32320;BME280;19080;51.750;5.888;2023-04-04T03:06:32;102664.25;;;0.15;100.00
32320;BME280;19080;51.750;5.888;2023-04-04T03:08:59;102740.78;;;0.54;100.00
32320;BME280;19080;51.750;5.888;2023-04-04T03:11:26;102745.25;;;0.55;100.00
32320;BME280;19080;51.750;5.888;2023-04-04T03:13:53;102633.72;;;-0.07;100.00
32320;BME280;19080;51.750;5.888;2023-04-04T03:16:30;102762.88;;;0.68;100.00
32320;BME280;19080;51.750;5.888;2023-04-04T03:18:57;102717.28;;;0.44;100.00
32320;BME280;19080;51.750;5.888;2023-04-04T03:21:24;102736.63;;;0.56;100.00
32320;BME280;19080;51.750;5.888;2023-04-04T03:23:54;102713.34;;;0.49;100.00
32320;BME280;19080;51.750;5.888;2023-04-04T03:26:20;102709.44;;;0.44;100.00
32320;BME280;19080;51.750;5.888;2023-04-04T03:28:47;102631.50;;;-0.02;100.00
32320;BME280;19080;51.750;5.888;2023-04-04T03:31:13;102726.69;;;0.52;100.00
32320;BME280;19080;51.750;5.888;2023-04-04T03:33:41;102754.91;;;0.67;100.00
32320;BME280;19080;51.750;5.888;2023-04-04T03:36:09;102709.31;;;0.43;100.00
32320;BME280;19080;51.750;5.888;2023-04-04T03:38:37;102719.09;;;0.45;100.00
32320;BME280;19080;51.750;5.888;2023-04-04T03:41:05;102720.41;;;0.40;100.00
32320;BME280;19080;51.750;5.888;2023-04-04T03:43:32;102650.91;;;0.02;100.00
32320;BME280;19080;51.750;5.888;2023-04-04T03:46:03;102749.03;;;0.59;100.00
32320;BME280;19080;51.750;5.888;2023-04-04T03:48:30;102625.88;;;-0.17;100.00
32320;BME280;19080;51.750;5.888;2023-04-04T03:50:57;102652.59;;;0.01;100.00
32320;BME280;19080;51.750;5.888;2023-04-04T03:53:25;102723.81;;;0.39;100.00
32320;BME280;19080;51.750;5.888;2023-04-04T03:55:54;102723.81;;;0.39;100.00
32320;BME280;19080;51.750;5.888;2023-04-04T03:58:22;102731.78;;;0.41;100.00
32320;BME280;19080;51.750;5.888;2023-04-04T04:00:49;102741.31;;;0.40;100.00
32320;BME280;19080;51.750;5.888;2023-04-04T04:03:16;102747.06;;;0.46;100.00
32320;BME280;19080;51.750;5.888;2023-04-04T04:05:44;102704.97;;;0.23;100.00
32320;BME280;19080;51.750;5.888;2023-04-04T04:08:11;102704.97;;;0.23;100.00
32320;BME280;19080;51.750;5.888;2023-04-04T04:10:38;102703.28;;;0.13;100.00
32320;BME280;19080;51.750;5.888;2023-04-04T04:13:05;102593.72;;;-0.46;100.00
32320;BME280;19080;51.750;5.888;2023-04-04T04:15:32;102723.00;;;0.20;100.00
32320;BME280;19080;51.750;5.888;2023-04-04T04:18:03;102725.84;;;0.13;100.00
32320;BME280;19080;51.750;5.888;2023-04-04T04:20:30;102749.91;;;0.19;100.00
32320;BME280;19080;51.750;5.888;2023-04-04T04:22:56;102727.66;;;0.04;100.00
32320;BME280;19080;51.750;5.888;2023-04-04T04:25:23;102745.69;;;0.11;100.00
32320;BME280;19080;51.750;5.888;2023-04-04T04:28:08;102745.69;;;0.11;100.00
32320;BME280;19080;51.750;5.888;2023-04-04T04:30:35;102611.94;;;-0.67;100.00
32320;BME280;19080;51.750;5.888;2023-04-04T04:33:02;102737.84;;;0.00;100.00
32320;BME280;19080;51.750;5.888;2023-04-04T04:35:37;102692.41;;;-0.22;100.00
32320;BME280;19080;51.750;5.888;2023-04-04T04:38:06;102707.91;;;-0.23;100.00
32320;BME280;19080;51.750;5.888;2023-04-04T04:40:34;102588.63;;;-0.94;100.00
32320;BME280;19080;51.750;5.888;2023-04-04T04:43:06;102748.00;;;-0.13;100.00
32320;BME280;19080;51.750;5.888;2023-04-04T04:45:32;102703.03;;;-0.39;100.00
32320;BME280;19080;51.750;5.888;2023-04-04T04:48:05;102637.97;;;-0.77;100.00
32320;BME280;19080;51.750;5.888;2023-04-04T04:50:42;102724.47;;;-0.33;100.00
32320;BME280;19080;51.750;5.888;2023-04-04T04:53:10;102741.75;;;-0.15;100.00
32320;BME280;19080;51.750;5.888;2023-04-04T04:55:37;102660.59;;;-0.57;100.00
32320;BME280;19080;51.750;5.888;2023-04-04T04:58:08;102721.25;;;-0.20;100.00
32320;BME280;19080;51.750;5.888;2023-04-04T05:00:39;102738.75;;;-0.09;100.00
32320;BME280;19080;51.750;5.888;2023-04-04T05:03:06;102759.91;;;0.04;100.00
32320;BME280;19080;51.750;5.888;2023-04-04T05:05:38;102706.22;;;-0.23;100.00
32320;BME280;19080;51.750;5.888;2023-04-04T05:08:10;102741.50;;;0.03;100.00
32320;BME280;19080;51.750;5.888;2023-04-04T05:10:45;102664.97;;;-0.37;100.00
32320;BME280;19080;51.750;5.888;2023-04-04T05:13:12;102709.13;;;-0.10;100.00
32320;BME280;19080;51.750;5.888;2023-04-04T05:15:45;102615.34;;;-0.57;100.00
32320;BME280;19080;51.750;5.888;2023-04-04T05:18:12;102741.28;;;0.20;100.00
32320;BME280;19080;51.750;5.888;2023-04-04T05:20:40;102721.66;;;0.05;100.00
32320;BME280;19080;51.750;5.888;2023-04-04T05:23:10;102751.84;;;0.21;100.00
32320;BME280;19080;51.750;5.888;2023-04-04T05:25:40;102711.50;;;-0.03;100.00
32320;BME280;19080;51.750;5.888;2023-04-04T05:28:07;102726.63;;;0.12;100.00
32320;BME280;19080;51.750;5.888;2023-04-04T05:30:36;102749.13;;;0.30;100.00
32320;BME280;19080;51.750;5.888;2023-04-04T05:33:18;102759.19;;;0.36;100.00
32320;BME280;19080;51.750;5.888;2023-04-04T05:35:58;102740.50;;;0.21;100.00
32320;BME280;19080;51.750;5.888;2023-04-04T05:38:28;102769.50;;;0.34;100.00
32320;BME280;19080;51.750;5.888;2023-04-04T05:40:55;102777.34;;;0.44;100.00
32320;BME280;19080;51.750;5.888;2023-04-04T05:43:23;102718.81;;;0.22;100.00
32320;BME280;19080;51.750;5.888;2023-04-04T05:45:57;102766.41;;;0.48;100.00
32320;BME280;19080;51.750;5.888;2023-04-04T05:48:25;102744.84;;;0.51;100.00
32320;BME280;19080;51.750;5.888;2023-04-04T05:50:52;102750.59;;;0.57;100.00
32320;BME280;19080;51.750;5.888;2023-04-04T05:53:30;102768.88;;;0.77;100.00
32320;BME280;19080;51.750;5.888;2023-04-04T05:55:58;102751.50;;;0.78;100.00
32320;BME280;19080;51.750;5.888;2023-04-04T05:58:29;102758.69;;;0.90;100.00
32320;BME280;19080;51.750;5.888;2023-04-04T06:00:57;102747.31;;;0.90;100.00
32320;BME280;19080;51.750;5.888;2023-04-04T06:03:30;102653.28;;;0.49;100.00
32320;BME280;19080;51.750;5.888;2023-04-04T06:05:58;102746.00;;;1.05;100.00
32320;BME280;19080;51.750;5.888;2023-04-04T06:08:26;102783.59;;;1.38;100.00
32320;BME280;19080;51.750;5.888;2023-04-04T06:10:53;102737.84;;;1.22;100.00
32320;BME280;19080;51.750;5.888;2023-04-04T06:13:21;102735.22;;;1.33;100.00
32320;BME280;19080;51.750;5.888;2023-04-04T06:15:53;102762.72;;;1.59;100.00
32320;BME280;19080;51.750;5.888;2023-04-04T06:18:20;102715.06;;;1.32;100.00
32320;BME280;19080;51.750;5.888;2023-04-04T06:20:47;102687.22;;;1.32;100.00
32320;BME280;19080;51.750;5.888;2023-04-04T06:23:14;102646.84;;;1.18;100.00
32320;BME280;19080;51.750;5.888;2023-04-04T06:25:44;102684.38;;;1.51;100.00
32320;BME280;19080;51.750;5.888;2023-04-04T06:28:12;102771.47;;;2.14;100.00
32320;BME280;19080;51.750;5.888;2023-04-04T06:30:42;102752.59;;;2.18;100.00
32320;BME280;19080;51.750;5.888;2023-04-04T06:33:11;102700.34;;;1.98;100.00
32320;BME280;19080;51.750;5.888;2023-04-04T06:35:43;102686.00;;;2.04;100.00
32320;BME280;19080;51.750;5.888;2023-04-04T06:38:10;102799.22;;;2.77;100.00
32320;BME280;19080;51.750;5.888;2023-04-04T06:40:37;102769.22;;;2.74;100.00
32320;BME280;19080;51.750;5.888;2023-04-04T06:43:04;102763.34;;;2.88;100.00
32320;BME280;19080;51.750;5.888;2023-04-04T06:45:37;102774.13;;;3.14;100.00
32320;BME280;19080;51.750;5.888;2023-04-04T06:48:04;102682.84;;;3.10;100.00
32320;BME280;19080;51.750;5.888;2023-04-04T06:50:32;102784.41;;;4.18;100.00
32320;BME280;19080;51.750;5.888;2023-04-04T06:53:00;102762.63;;;4.69;100.00
32320;BME280;19080;51.750;5.888;2023-04-04T06:55:28;102773.66;;;5.28;100.00
32320;BME280;19080;51.750;5.888;2023-04-04T06:57:55;102777.53;;;5.72;92.69
32320;BME280;19080;51.750;5.888;2023-04-04T07:00:22;102762.22;;;5.80;83.43
32320;BME280;19080;51.750;5.888;2023-04-04T07:02:48;102790.19;;;6.04;80.37
32320;BME280;19080;51.750;5.888;2023-04-04T07:05:16;102761.63;;;6.38;77.44
32320;BME280;19080;51.750;5.888;2023-04-04T07:07:44;102796.31;;;6.87;74.29
32320;BME280;19080;51.750;5.888;2023-04-04T07:10:11;102766.91;;;7.10;72.67
32320;BME280;19080;51.750;5.888;2023-04-04T07:12:38;102756.06;;;7.35;71.16
32320;BME280;19080;51.750;5.888;2023-04-04T07:15:05;102785.53;;;7.87;68.62
32320;BME280;19080;51.750;5.888;2023-04-04T07:17:32;102738.72;;;8.01;67.46
32320;BME280;19080;51.750;5.888;2023-04-04T07:20:02;102781.63;;;8.59;64.06
32320;BME280;19080;51.750;5.888;2023-04-04T07:22:30;102789.03;;;8.82;61.05
32320;BME280;19080;51.750;5.888;2023-04-04T07:24:56;102755.94;;;8.90;60.08
32320;BME280;19080;51.750;5.888;2023-04-04T07:27:23;102701.06;;;8.88;56.44
32320;BME280;19080;51.750;5.888;2023-04-04T07:29:50;102752.06;;;8.84;58.48
32320;BME280;19080;51.750;5.888;2023-04-04T07:32:17;102789.72;;;9.28;55.81
32320;BME280;19080;51.750;5.888;2023-04-04T07:34:44;102781.31;;;9.37;55.89
32320;BME280;19080;51.750;5.888;2023-04-04T07:37:10;102766.56;;;9.42;56.62
32320;BME280;19080;51.750;5.888;2023-04-04T07:39:37;102717.03;;;9.23;54.83
32320;BME280;19080;51.750;5.888;2023-04-04T07:42:04;102778.72;;;9.90;54.20
32320;BME280;19080;51.750;5.888;2023-04-04T07:44:32;102767.56;;;9.79;54.36
32320;BME280;19080;51.750;5.888;2023-04-04T07:46:58;102773.69;;;9.96;53.17
32320;BME280;19080;51.750;5.888;2023-04-04T07:49:35;102694.44;;;9.85;51.83
32320;BME280;19080;51.750;5.888;2023-04-04T07:52:02;102760.03;;;10.24;50.68
32320;BME280;19080;51.750;5.888;2023-04-04T07:54:30;102709.44;;;10.40;49.43
32320;BME280;19080;51.750;5.888;2023-04-04T07:56:56;102768.69;;;10.97;48.45
32320;BME280;19080;51.750;5.888;2023-04-04T07:59:23;102764.34;;;10.99;47.91
32320;BME280;19080;51.750;5.888;2023-04-04T08:01:50;102687.75;;;10.70;46.78
32320;BME280;19080;51.750;5.888;2023-04-04T08:04:16;102789.22;;;11.62;46.59
32320;BME280;19080;51.750;5.888;2023-04-04T08:06:43;102688.31;;;11.24;45.54
32320;BME280;19080;51.750;5.888;2023-04-04T08:09:10;102786.94;;;11.71;46.50
32320;BME280;19080;51.750;5.888;2023-04-04T08:11:37;102762.09;;;11.71;45.86
32320;BME280;19080;51.750;5.888;2023-04-04T08:14:03;102787.28;;;12.00;45.23
32320;BME280;19080;51.750;5.888;2023-04-04T08:16:31;102756.75;;;12.36;44.67
32320;BME280;19080;51.750;5.888;2023-04-04T08:18:58;102751.78;;;12.46;42.62
32320;BME280;19080;51.750;5.888;2023-04-04T08:21:25;102693.94;;;12.19;43.72
32320;BME280;19080;51.750;5.888;2023-04-04T08:23:52;102776.31;;;12.61;42.65
32320;BME280;19080;51.750;5.888;2023-04-04T08:26:20;102732.16;;;12.91;41.78
32320;BME280;19080;51.750;5.888;2023-04-04T08:28:49;102771.13;;;13.37;40.83
32320;BME280;19080;51.750;5.888;2023-04-04T08:31:16;102774.13;;;13.46;40.85
32320;BME280;19080;51.750;5.888;2023-04-04T08:33:44;102743.63;;;13.65;39.40
32320;BME280;19080;51.750;5.888;2023-04-04T08:36:14;102747.09;;;13.62;37.40
32320;BME280;19080;51.750;5.888;2023-04-04T08:38:41;102749.47;;;13.28;38.95
32320;BME280;19080;51.750;5.888;2023-04-04T08:41:08;102707.00;;;13.09;40.48
32320;BME280;19080;51.750;5.888;2023-04-04T08:43:37;102671.34;;;13.86;35.94
32320;BME280;19080;51.750;5.888;2023-04-04T08:46:04;102704.09;;;13.53;36.99
32320;BME280;19080;51.750;5.888;2023-04-04T08:48:32;102674.69;;;13.52;36.41
32320;BME280;19080;51.750;5.888;2023-04-04T08:50:59;102749.00;;;13.95;36.18
32320;BME280;19080;51.750;5.888;2023-04-04T08:53:30;102737.78;;;13.77;36.19
32320;BME280;19080;51.750;5.888;2023-04-04T08:55:59;102732.44;;;14.05;35.06
32320;BME280;19080;51.750;5.888;2023-04-04T08:58:26;102765.28;;;14.02;36.15
32320;BME280;19080;51.750;5.888;2023-04-04T09:00:53;102742.81;;;13.96;34.71
32320;BME280;19080;51.750;5.888;2023-04-04T09:03:25;102757.78;;;13.91;35.45
32320;BME280;19080;51.750;5.888;2023-04-04T09:05:54;102687.72;;;13.70;34.33
32320;BME280;19080;51.750;5.888;2023-04-04T09:08:21;102749.50;;;13.55;36.88
32320;BME280;19080;51.750;5.888;2023-04-04T09:10:51;102699.00;;;13.89;35.23
32320;BME280;19080;51.750;5.888;2023-04-04T09:13:18;102756.03;;;14.48;35.47
32320;BME280;19080;51.750;5.888;2023-04-04T09:15:47;102726.88;;;14.27;36.15
32320;BME280;19080;51.750;5.888;2023-04-04T09:18:15;102724.31;;;14.30;34.79
32320;BME280;19080;51.750;5.888;2023-04-04T09:20:43;102619.72;;;13.87;36.72
32320;BME280;19080;51.750;5.888;2023-04-04T09:25:59;102724.91;;;14.80;34.72
32320;BME280;19080;51.750;5.888;2023-04-04T09:28:30;102752.59;;;14.82;35.59
32320;BME280;19080;51.750;5.888;2023-04-04T09:31:00;102717.66;;;14.76;34.45
32320;BME280;19080;51.750;5.888;2023-04-04T09:33:27;102731.72;;;14.69;35.05
32320;BME280;19080;51.750;5.888;2023-04-04T09:35:57;102663.97;;;15.02;34.07
32320;BME280;19080;51.750;5.888;2023-04-04T09:38:25;102733.69;;;15.42;33.98
32320;BME280;19080;51.750;5.888;2023-04-04T09:40:54;102745.25;;;15.41;34.04
32320;BME280;19080;51.750;5.888;2023-04-04T09:43:24;102735.66;;;15.49;33.90
32320;BME280;19080;51.750;5.888;2023-04-04T09:45:53;102662.78;;;15.59;32.04
32320;BME280;19080;51.750;5.888;2023-04-04T09:48:29;102724.44;;;16.02;31.51
32320;BME280;19080;51.750;5.888;2023-04-04T09:50:57;102710.28;;;15.70;32.46
32320;BME280;19080;51.750;5.888;2023-04-04T09:53:25;102727.50;;;16.18;31.44
32320;BME280;19080;51.750;5.888;2023-04-04T09:55:54;102705.28;;;16.24;31.87
32320;BME280;19080;51.750;5.888;2023-04-04T09:58:28;102644.91;;;15.99;31.06
32320;BME280;19080;51.750;5.888;2023-04-04T10:00:59;102704.41;;;16.25;31.82
32320;BME280;19080;51.750;5.888;2023-04-04T10:03:27;102659.63;;;16.19;30.62
32320;BME280;19080;51.750;5.888;2023-04-04T10:06:02;102679.84;;;16.46;31.22
32320;BME280;19080;51.750;5.888;2023-04-04T10:08:33;102727.97;;;16.82;30.17
32320;BME280;19080;51.750;5.888;2023-04-04T10:11:04;102695.50;;;16.68;31.24
32320;BME280;19080;51.750;5.888;2023-04-04T10:13:38;102650.72;;;16.20;29.94
32320;BME280;19080;51.750;5.888;2023-04-04T10:16:07;102698.75;;;16.11;31.05
32320;BME280;19080;51.750;5.888;2023-04-04T10:18:35;102704.91;;;16.07;30.90
32320;BME280;19080;51.750;5.888;2023-04-04T10:21:04;102700.59;;;16.14;30.42
32320;BME280;19080;51.750;5.888;2023-04-04T10:23:43;102691.66;;;16.13;30.95
32320;BME280;19080;51.750;5.888;2023-04-04T10:26:11;102709.94;;;16.33;30.52
32320;BME280;19080;51.750;5.888;2023-04-04T10:28:38;102674.59;;;16.52;30.78
32320;BME280;19080;51.750;5.888;2023-04-04T10:31:16;102716.84;;;17.09;30.86
32320;BME280;19080;51.750;5.888;2023-04-04T10:36:29;102679.41;;;17.15;29.16
32320;BME280;19080;51.750;5.888;2023-04-04T10:39:03;102715.88;;;17.56;31.17
32320;BME280;19080;51.750;5.888;2023-04-04T10:41:34;102694.19;;;17.44;29.17
32320;BME280;19080;51.750;5.888;2023-04-04T10:44:11;102692.47;;;17.49;30.22
32320;BME280;19080;51.750;5.888;2023-04-04T10:46:40;102633.44;;;17.52;29.64
32320;BME280;19080;51.750;5.888;2023-04-04T10:49:08;102660.34;;;17.55;28.64
32320;BME280;19080;51.750;5.888;2023-04-04T10:51:35;102707.16;;;17.70;29.38
32320;BME280;19080;51.750;5.888;2023-04-04T10:54:18;102688.69;;;17.91;28.52
32320;BME280;19080;51.750;5.888;2023-04-04T10:56:45;102601.75;;;17.86;28.29
32320;BME280;19080;51.750;5.888;2023-04-04T10:59:13;102694.19;;;18.00;28.90
32320;BME280;19080;51.750;5.888;2023-04-04T11:01:58;102668.69;;;17.72;27.97
32320;BME280;19080;51.750;5.888;2023-04-04T11:09:52;102668.47;;;18.20;27.90
32320;BME280;19080;51.750;5.888;2023-04-04T11:12:30;102618.19;;;18.10;28.61
32320;BME280;19080;51.750;5.888;2023-04-04T11:20:16;102657.03;;;19.22;26.72
32320;BME280;19080;51.750;5.888;2023-04-04T11:22:43;102642.00;;;19.51;26.75
32320;BME280;19080;51.750;5.888;2023-04-04T11:27:53;102566.44;;;19.30;27.16
32320;BME280;19080;51.750;5.888;2023-04-04T11:30:22;102651.44;;;20.28;26.84
32320;BME280;19080;51.750;5.888;2023-04-04T11:32:49;102620.13;;;20.75;26.53
32320;BME280;19080;51.750;5.888;2023-04-04T11:35:31;102645.31;;;21.69;24.92
32320;BME280;19080;51.750;5.888;2023-04-04T11:37:59;102641.75;;;21.36;25.59
32320;BME280;19080;51.750;5.888;2023-04-04T11:40:33;102634.53;;;21.38;24.00
32320;BME280;19080;51.750;5.888;2023-04-04T11:43:06;102567.03;;;20.64;24.92
32320;BME280;19080;51.750;5.888;2023-04-04T11:45:33;102624.59;;;20.96;25.11
32320;BME280;19080;51.750;5.888;2023-04-04T11:48:02;102617.41;;;20.89;24.84
32320;BME280;19080;51.750;5.888;2023-04-04T11:50:40;102576.91;;;21.00;24.33
32320;BME280;19080;51.750;5.888;2023-04-04T11:53:11;102644.44;;;21.42;24.61
32320;BME280;19080;51.750;5.888;2023-04-04T11:55:40;102570.59;;;21.07;25.28
32320;BME280;19080;51.750;5.888;2023-04-04T11:58:09;102629.06;;;21.75;24.78
32320;BME280;19080;51.750;5.888;2023-04-04T12:00:39;102625.41;;;22.06;23.69
32320;BME280;19080;51.750;5.888;2023-04-04T12:03:11;102632.69;;;21.74;24.48
32320;BME280;19080;51.750;5.888;2023-04-04T12:05:40;102634.38;;;22.13;25.20
32320;BME280;19080;51.750;5.888;2023-04-04T12:08:09;102593.88;;;21.89;24.37
32320;BME280;19080;51.750;5.888;2023-04-04T12:10:38;102565.16;;;21.51;24.28
32320;BME280;19080;51.750;5.888;2023-04-04T12:13:07;102619.13;;;21.85;24.73
32320;BME280;19080;51.750;5.888;2023-04-04T12:15:35;102604.69;;;22.02;24.57
32320;BME280;19080;51.750;5.888;2023-04-04T12:18:06;102621.50;;;22.59;23.65
32320;BME280;19080;51.750;5.888;2023-04-04T12:20:36;102593.56;;;22.54;24.78
32320;BME280;19080;51.750;5.888;2023-04-04T12:23:03;102518.53;;;22.70;23.58
32320;BME280;19080;51.750;5.888;2023-04-04T12:25:31;102582.53;;;22.79;23.59
32320;BME280;19080;51.750;5.888;2023-04-04T12:28:01;102596.34;;;22.45;23.85
32320;BME280;19080;51.750;5.888;2023-04-04T12:30:29;102594.09;;;23.05;23.75
32320;BME280;19080;51.750;5.888;2023-04-04T12:32:57;102579.56;;;23.15;23.33
32320;BME280;19080;51.750;5.888;2023-04-04T12:35:24;102545.81;;;23.45;23.24
32320;BME280;19080;51.750;5.888;2023-04-04T12:40:28;102563.38;;;23.06;22.08
32320;BME280;19080;51.750;5.888;2023-04-04T12:42:54;102571.34;;;21.91;23.48
32320;BME280;19080;51.750;5.888;2023-04-04T12:45:21;102556.75;;;22.32;23.27
32320;BME280;19080;51.750;5.888;2023-04-04T12:47:53;102540.72;;;21.83;23.36
32320;BME280;19080;51.750;5.888;2023-04-04T12:50:25;102486.72;;;21.68;24.20
32320;BME280;19080;51.750;5.888;2023-04-04T12:52:52;102567.22;;;22.78;23.35
32320;BME280;19080;51.750;5.888;2023-04-04T12:55:29;102546.13;;;23.16;23.16
32320;BME280;19080;51.750;5.888;2023-04-04T12:57:59;102482.84;;;22.22;23.33
32320;BME280;19080;51.750;5.888;2023-04-04T13:00:26;102531.16;;;22.69;23.75
32320;BME280;19080;51.750;5.888;2023-04-04T13:02:53;102522.25;;;22.55;23.28
32320;BME280;19080;51.750;5.888;2023-04-04T13:05:23;102547.78;;;22.24;23.32
32320;BME280;19080;51.750;5.888;2023-04-04T13:08:04;102529.84;;;21.95;24.03
32320;BME280;19080;51.750;5.888;2023-04-04T13:10:55;102548.81;;;21.92;24.56
32320;BME280;19080;51.750;5.888;2023-04-04T13:13:36;102527.28;;;21.66;24.63
32320;BME280;19080;51.750;5.888;2023-04-04T13:16:33;102539.88;;;21.70;25.63
32320;BME280;19080;51.750;5.888;2023-04-04T13:19:03;102517.28;;;21.85;24.29
32320;BME280;19080;51.750;5.888;2023-04-04T13:21:30;102505.69;;;21.60;25.21
32320;BME280;19080;51.750;5.888;2023-04-04T13:23:56;102511.19;;;21.15;24.66
32320;BME280;19080;51.750;5.888;2023-04-04T13:26:23;102503.13;;;20.37;25.09